• Join FlightAware (Why Join?)
  • Login
  • US Flag 
01:41AM EST


 

Airport Tracker/Info


-or-


 

Live Flight TrackerFlight Track Log ✈ F-HPJG ✈ 23-Jun-2013 ✈ KLAX - LFPG / CDG

Flight Track Log - Related Links

Times and Time Zones

All times are in EDT time to prevent confusion due to time zone crossing. See the F-HPJG flight status page for this flight to view local times or setup timezone preferences in your user account.

Time Position Orientation Groundspeed Altitude Reporting Facility
EDT Latitude Longitude Course Direction KTS MPH feet Rate Location/Type
07:13PM 33.9390 -118.5020 263° West 203 234 2,000  Level FlightAware
07:13PM 33.9380 -118.5150 265° West 221 254 2,200 1,320 Climbing FlightAware
07:14PM 33.9340 -118.5480 262° West 243 280 2,900 2,520 Climbing FlightAware
07:14PM 33.9310 -118.5820 264° West 239 275 4,300 3,420 Climbing FlightAware
07:15PM 33.9210 -118.6070 244° Southwest 235 270 5,500 2,880 Climbing FlightAware
07:15PM 33.8720 -118.5960 169° South 276 318 7,200 2,520 Climbing FlightAware
07:15PM 33.8680 -118.5780 105° East 276 318 7,700 2,220 Climbing FlightAware
07:16PM 33.8860 -118.5310 65° Northeast 282 325 8,900 2,160 Climbing FlightAware
07:16PM 33.9040 -118.4970 57° Northeast 290 334 9,800 1,800 Climbing FlightAware
07:17PM 33.9310 -118.4370 62° Northeast 318 366 10,900 1,800 Climbing FlightAware
07:18PM 33.9690 -118.3660 57° Northeast 335 386 12,400 1,920 Climbing FlightAware
07:19PM 34.0050 -118.3050 55° Northeast 352 405 13,700 1,440 Climbing FlightAware
07:19PM 34.0470 -118.2330 55° Northeast 393 452 14,400 840 Climbing FlightAware
07:20PM 34.0970 -118.1430 56° Northeast 433 498 15,000 1,200 Climbing FlightAware
07:21PM 34.1450 -118.0680 52° Northeast 444 511 16,200 2,040 Climbing FlightAware
07:21PM 34.2040 -117.9820 50° Northeast 450 518 17,900 2,040 Climbing FlightAware
07:22PM 34.2600 -117.9020 50° Northeast 457 526 19,200 1,680 Climbing FlightAware
07:23PM 34.3160 -117.8200 50° Northeast 471 542 20,300 1,620 Climbing FlightAware
07:23PM 34.3720 -117.7390 50° Northeast 478 550 21,400 1,680 Climbing FlightAware
07:24PM 34.4360 -117.6460 50° Northeast 486 559 22,700 1,560 Climbing FlightAware
07:25PM 34.4960 -117.5590 50° Northeast 495 570 23,700 1,440 Climbing FlightAware
07:26PM 34.5540 -117.4730 51° Northeast 503 579 24,700 1,380 Climbing FlightAware
07:26PM 34.6180 -117.3790 50° Northeast 512 589 25,600 1,500 Climbing FlightAware
07:27PM 34.6770 -117.2920 50° Northeast 511 588 26,800 1,380 Climbing FlightAware
07:28PM 34.7450 -117.1920 50° Northeast 520 598 27,600 780 Climbing FlightAware
07:29PM 34.8100 -117.0960 50° Northeast 521 600 28,100 960 Climbing FlightAware
07:30PM 34.9110 -116.9470 50° Northeast 530 610 29,400 780 Climbing FlightAware
07:30PM 34.9620 -116.8730 50° Northeast 530 610 29,400  Level FlightAware
07:31PM 35.0260 -116.7800 50° Northeast 530 610 29,400 2,760 Level FlightAware
07:32PM 35.1030 -116.6580 52° Northeast 513 590 33,300 2,880 Climbing FlightAware
07:32PM 35.1710 -116.5590 50° Northeast 511 588 33,600 180 Climbing FlightAware
07:33PM 35.2200 -116.4870 50° Northeast 511 588 33,600 2,040 Level FlightAware
07:34PM 35.2940 -116.3700 52° Northeast 492 566 36,300 2,100 Climbing FlightAware
07:35PM 35.3630 -116.2660 51° Northeast 496 571 36,700 300 Climbing FlightAware
07:35PM 35.4200 -116.1790 51° Northeast 505 581 36,800 60 Climbing FlightAware
07:36PM 35.4740 -116.0960 51° Northeast 507 583 36,800 120 Level FlightAware
07:37PM 35.5550 -115.9700 52° Northeast 515 593 37,000 120 Climbing FlightAware
07:37PM 35.6120 -115.8730 54° Northeast 516 594 37,000  Level FlightAware
07:38PM 35.6780 -115.7650 53° Northeast 518 596 37,000  Level FlightAware
07:39PM 35.7390 -115.6660 53° Northeast 517 595 37,000  Level FlightAware
07:40PM 35.8010 -115.5630 53° Northeast 516 594 37,000  Level FlightAware
07:40PM 35.8600 -115.4660 53° Northeast 514 592 37,000  Level FlightAware
07:41PM 35.9230 -115.3630 53° Northeast 514 592 37,000  Level FlightAware
07:42PM 35.9840 -115.2610 54° Northeast 514 592 37,000  Level FlightAware
07:42PM 36.0410 -115.1660 53° Northeast 514 592 37,000  Level FlightAware
07:43PM 36.1000 -115.0670 54° Northeast 517 595 37,000  Level FlightAware
07:44PM 36.1600 -114.9670 53° Northeast 521 600 37,000  Level FlightAware
07:45PM 36.2220 -114.8630 54° Northeast 522 601 37,000  Level FlightAware
07:45PM 36.2780 -114.7700 53° Northeast 523 602 37,000  Level FlightAware
07:46PM 36.3430 -114.6600 54° Northeast 524 603 37,000  Level FlightAware
07:47PM 36.4040 -114.5750 48° Northeast 525 604 37,000  Level FlightAware
07:47PM 36.4800 -114.4700 48° Northeast 525 604 37,000  Level FlightAware
07:48PM 36.5460 -114.3790 48° Northeast 521 600 37,000  Level FlightAware
07:49PM 36.6150 -114.2830 48° Northeast 521 600 37,000  Level FlightAware
07:49PM 36.6790 -114.1940 48° Northeast 519 597 37,000  Level FlightAware
07:50PM 36.7440 -114.1050 48° Northeast 519 597 37,000  Level FlightAware
07:51PM 36.8200 -113.9990 48° Northeast 522 601 37,000  Level FlightAware
07:52PM 36.8840 -113.9100 48° Northeast 522 601 37,000  Level FlightAware
07:52PM 36.9500 -113.8170 48° Northeast 522 601 37,000  Level FlightAware
07:53PM 37.0150 -113.7250 48° Northeast 521 600 37,000  Level FlightAware
07:54PM 37.0850 -113.6270 48° Northeast 521 600 37,000  Level FlightAware
07:54PM 37.1450 -113.5420 48° Northeast 522 601 37,000  Level FlightAware
07:55PM 37.1980 -113.4690 48° Northeast 522 601 37,000  Level FlightAware
07:56PM 37.2620 -113.3790 48° Northeast 522 601 37,000  Level FlightAware
07:56PM 37.3120 -113.3100 48° Northeast 522 601 37,000  Level FlightAware
07:57PM 37.3760 -113.2200 48° Northeast 522 601 37,000  Level FlightAware
07:58PM 37.4280 -113.1470 48° Northeast 522 601 37,000  Level FlightAware
07:59PM 37.5150 -113.0260 48° Northeast 522 601 37,000  Level FlightAware
07:59PM 37.5660 -112.9550 48° Northeast 522 601 37,000  Level FlightAware
08:00PM 37.6290 -112.8660 48° Northeast 522 601 37,000  Level FlightAware
08:01PM 37.6780 -112.7970 48° Northeast 522 601 37,000  Level FlightAware
08:02PM 37.7440 -112.7040 48° Northeast 522 601 37,000  Level FlightAware
08:02PM 37.7950 -112.6330 48° Northeast 522 601 37,000  Level FlightAware
08:03PM 37.8820 -112.5110 48° Northeast 522 601 37,000  Level FlightAware
08:04PM 37.9280 -112.4460 48° Northeast 522 601 37,000  Level FlightAware
08:05PM 38.1520 -112.0850 52° Northeast 517 595 37,000  Level FlightAware
08:06PM 38.2160 -111.9910 49° Northeast 519 597 37,000  Level FlightAware
08:06PM 38.2650 -111.9180 49° Northeast 519 597 37,000  Level FlightAware
08:07PM 38.3290 -111.8240 49° Northeast 519 597 37,000  Level FlightAware
08:08PM 38.3780 -111.7530 49° Northeast 519 597 37,000  Level FlightAware
08:08PM 38.4430 -111.6570 49° Northeast 519 597 37,000  Level FlightAware
08:09PM 38.4910 -111.5860 49° Northeast 519 597 37,000  Level FlightAware
08:10PM 38.5530 -111.4950 49° Northeast 519 597 37,000  Level FlightAware
08:10PM 38.5980 -111.4280 49° Northeast 519 597 37,000  Level FlightAware
08:11PM 38.6640 -111.3320 49° Northeast 519 597 37,000  Level FlightAware
08:12PM 38.8190 -111.0830 51° Northeast 518 596 37,000  Level FlightAware
08:13PM 38.8850 -110.9810 50° Northeast 519 597 37,000  Level FlightAware
08:14PM 38.9370 -110.9010 50° Northeast 519 597 37,000  Level FlightAware
08:14PM 38.8850 -110.9810 230° Southwest 522 601 37,000  Level FlightAware
08:15PM 38.9500 -110.8820 50° Northeast 522 601 37,000  Level FlightAware
08:16PM 39.1870 -110.5150 50° Northeast 519 597 37,000  Level FlightAware
08:17PM 39.2550 -110.4090 50° Northeast 516 594 37,000  Level FlightAware
08:17PM 39.3170 -110.3120 50° Northeast 514 592 37,000  Level FlightAware
08:18PM 39.3740 -110.2230 50° Northeast 515 593 37,000  Level FlightAware
08:19PM 39.4480 -110.1060 51° Northeast 515 593 37,000  Level FlightAware
08:19PM 39.5100 -110.0080 51° Northeast 513 590 37,000  Level FlightAware
08:20PM 39.5710 -109.9120 50° Northeast 513 590 37,000  Level FlightAware
08:21PM 39.6340 -109.8120 51° Northeast 513 590 37,000  Level FlightAware
08:22PM 39.7040 -109.7010 51° Northeast 511 588 37,000  Level FlightAware
08:22PM 39.7660 -109.6020 51° Northeast 510 587 37,000  Level FlightAware
08:23PM 39.8190 -109.5160 51° Northeast 510 587 37,000  Level FlightAware
08:24PM 39.8870 -109.4060 51° Northeast 511 588 37,000  Level FlightAware
08:24PM 39.9440 -109.3140 51° Northeast 510 587 37,000  Level FlightAware
08:25PM 40.0060 -109.2150 51° Northeast 511 588 37,000  Level FlightAware
08:26PM 40.0730 -109.1050 51° Northeast 507 583 37,000  Level FlightAware
08:26PM 40.1170 -109.0340 51° Northeast 508 585 37,000  Level FlightAware
08:27PM 40.1760 -108.9380 51° Northeast 508 585 37,000  Level FlightAware
08:28PM 40.2430 -108.8280 51° Northeast 508 585 37,000  Level FlightAware
08:28PM 40.3010 -108.7330 51° Northeast 509 586 37,000  Level FlightAware
08:29PM 40.3610 -108.6350 51° Northeast 510 587 37,000  Level FlightAware
08:30PM 40.4250 -108.5280 52° Northeast 511 588 37,000  Level FlightAware
08:30PM 40.4760 -108.4440 51° Northeast 511 588 37,000  Level FlightAware
08:31PM 40.5420 -108.3340 52° Northeast 511 588 37,000  Level FlightAware
08:32PM 40.6040 -108.2300 52° Northeast 512 589 37,000  Level FlightAware
08:33PM 40.6700 -108.1180 52° Northeast 516 594 37,000  Level FlightAware
08:33PM 40.7300 -108.0180 52° Northeast 516 594 37,000  Level FlightAware
08:34PM 40.7950 -107.9090 52° Northeast 517 595 37,000  Level FlightAware
08:35PM 40.8530 -107.8100 52° Northeast 516 594 37,000  Level FlightAware
08:36PM 40.9210 -107.6950 52° Northeast 516 594 37,000  Level FlightAware
08:36PM 40.9970 -107.5650 52° Northeast 520 598 37,000  Level FlightAware
08:37PM 41.0560 -107.4640 52° Northeast 519 597 37,000  Level FlightAware
08:38PM 41.1170 -107.3590 52° Northeast 519 597 37,000  Level FlightAware
08:38PM 41.1670 -107.2730 52° Northeast 520 598 37,000  Level FlightAware
08:39PM 41.2220 -107.1780 52° Northeast 520 598 37,000  Level FlightAware
08:40PM 41.3090 -107.0260 53° Northeast 518 596 37,000  Level FlightAware
08:41PM 41.3650 -106.9290 52° Northeast 518 596 37,000  Level FlightAware
08:41PM 41.4320 -106.8120 53° Northeast 520 598 37,000  Level FlightAware
08:42PM 41.5120 -106.6720 53° Northeast 518 596 37,000  Level FlightAware
08:43PM 41.5580 -106.5950 51° Northeast 518 596 37,000  Level FlightAware
08:44PM 41.6170 -106.4940 52° Northeast 518 596 37,000  Level FlightAware
08:44PM 41.6940 -106.3480 55° Northeast 522 601 37,000  Level FlightAware
08:45PM 41.7740 -106.2060 53° Northeast 524 603 37,000  Level FlightAware
08:46PM 41.8400 -106.0880 53° Northeast 523 602 37,000  Level FlightAware
08:47PM 41.8890 -106.0010 53° Northeast 524 603 37,000  Level FlightAware
08:47PM 41.9560 -105.8800 53° Northeast 528 608 37,000  Level FlightAware
08:48PM 42.0350 -105.7370 53° Northeast 529 609 37,000  Level FlightAware
08:49PM 42.0800 -105.6570 53° Northeast 529 609 37,000  Level FlightAware
08:50PM 42.1250 -105.5760 53° Northeast 529 609 37,000  Level FlightAware
08:50PM 42.2230 -105.3930 54° Northeast 520 598 37,000  Level FlightAware
08:51PM 42.2740 -105.3000 53° Northeast 518 596 37,000  Level FlightAware
08:52PM 42.3280 -105.2000 54° Northeast 519 597 37,000  Level FlightAware
08:52PM 42.3760 -105.1110 54° Northeast 519 597 37,000  Level FlightAware
08:53PM 42.4190 -105.0300 54° Northeast 519 597 37,000  Level FlightAware
08:53PM 42.4630 -104.9480 54° Northeast 519 597 37,000  Level FlightAware
08:54PM 42.5180 -104.8450 54° Northeast 519 597 37,000  Level FlightAware
08:55PM 42.5760 -104.7370 54° Northeast 519 597 37,000  Level FlightAware
08:55PM 42.6050 -104.6830 54° Northeast 519 597 37,000  Level FlightAware
08:56PM 42.6490 -104.6000 54° Northeast 519 597 37,000  Level FlightAware
08:57PM 42.6950 -104.5150 54° Northeast 519 597 37,000  Level FlightAware
08:57PM 42.7380 -104.4340 54° Northeast 519 597 37,000  Level FlightAware
08:58PM 42.7950 -104.3260 54° Northeast 519 597 37,000  Level FlightAware
08:59PM 42.8390 -104.2450 53° Northeast 519 597 37,000  Level FlightAware
08:59PM 42.8790 -104.1680 55° Northeast 519 597 37,000  Level FlightAware
09:00PM 42.9370 -104.0600 54° Northeast 519 597 37,000  Level FlightAware
09:01PM 42.9840 -103.9720 54° Northeast 519 597 37,000  Level FlightAware
09:01PM 43.0270 -103.8910 54° Northeast 519 597 37,000  Level FlightAware
09:02PM 43.1944 -103.5536 54° Northeast 527 606 37,000  Level Denver Center
09:03PM 43.2756 -103.3944 55° Northeast 532 612 37,000  Level Denver Center
09:04PM 43.3561 -103.2347 55° Northeast 532 612 37,000  Level Denver Center
09:05PM 43.4511 -103.0489 55° Northeast 532 612 37,000  Level Denver Center
09:06PM 43.5303 -102.8869 56° Northeast 532 612 37,000  Level Denver Center
09:07PM 43.6217 -102.7031 55° Northeast 525 604 37,000  Level Denver Center
09:08PM 43.7008 -102.5442 55° Northeast 524 603 37,000  Level Denver Center
09:09PM 43.7939 -102.3567 55° Northeast 530 610 37,000  Level Denver Center
09:10PM 43.8731 -102.1958 56° Northeast 531 611 37,000  Level Denver Center
09:11PM 43.9472 -102.0372 57° Northeast 536 617 37,000  Level Denver Center
09:12PM 44.0636 -101.7964 56° Northeast 538 619 37,000  Level Denver Center
09:13PM 44.1456 -101.6253 56° Northeast 534 615 37,000  Level Denver Center
09:15PM 44.2272 -101.4539 56° Northeast 531 611 37,000  Level Denver Center
09:16PM 44.3256 -101.2486 56° Northeast 531 611 37,000  Level Denver Center
09:17PM 44.4072 -101.0761 56° Northeast 532 612 37,000  Level Denver Center
09:18PM 44.4878 -100.9031 57° Northeast 532 612 37,000  Level Denver Center
09:19PM 44.6050 -100.6586 56° Northeast 536 617 37,000  Level Minneapolis Center
09:20PM 44.6861 -100.4831 57° Northeast 538 619 37,000  Level Minneapolis Center
09:21PM 44.7672 -100.3067 57° Northeast 539 620 37,000  Level Minneapolis Center
09:22PM 44.8478 -100.1300 57° Northeast 539 620 37,000  Level Minneapolis Center
09:23PM 44.9428 -99.9203 57° Northeast 539 620 37,000  Level Minneapolis Center
09:24PM 45.0200 -99.7483 58° Northeast 539 620 37,000  Level Minneapolis Center
09:25PM 45.0994 -99.5708 58° Northeast 542 624 37,000  Level Minneapolis Center
09:26PM 45.1794 -99.3911 58° Northeast 542 624 37,000  Level Minneapolis Center
09:27PM 45.2750 -99.1744 58° Northeast 542 624 37,000  Level Minneapolis Center
09:28PM 45.3544 -98.9936 58° Northeast 540 621 37,000  Level Minneapolis Center
09:29PM 45.4333 -98.8125 58° Northeast 538 619 37,000  Level Minneapolis Center
09:30PM 45.5117 -98.6311 58° Northeast 540 621 37,000  Level Minneapolis Center
09:31PM 45.5903 -98.4486 58° Northeast 543 625 37,000  Level Minneapolis Center
09:32PM 45.6683 -98.2658 59° Northeast 539 620 37,000  Level Minneapolis Center
09:33PM 45.7469 -98.0806 59° Northeast 538 619 37,000  Level Minneapolis Center
09:34PM 45.8247 -97.8961 59° Northeast 541 623 37,000  Level Minneapolis Center
09:35PM 45.9083 -97.6964 59° Northeast 539 620 37,000  Level Minneapolis Center
09:37PM 45.9847 -97.5125 59° Northeast 539 620 37,000  Level Minneapolis Center
09:38PM 46.0606 -97.3286 59° Northeast 537 618 37,000  Level Minneapolis Center
09:39PM 46.1514 -97.1075 59° Northeast 539 620 37,000  Level Minneapolis Center
09:40PM 46.2269 -96.9214 60° Northeast 542 624 37,000  Level Minneapolis Center
09:41PM 46.3050 -96.7292 60° Northeast 541 623 37,000  Level Minneapolis Center
09:42PM 46.3778 -96.5478 60° Northeast 542 624 37,000  Level Minneapolis Center
09:43PM 46.4378 -96.3969 60° Northeast 544 626 37,000  Level Minneapolis Center
09:44PM 46.5281 -96.1697 60° Northeast 545 627 37,000  Level Minneapolis Center
09:45PM 46.5875 -96.0183 60° Northeast 542 624 37,000  Level Minneapolis Center
09:46PM 46.6914 -95.7522 60° Northeast 544 626 37,000  Level Minneapolis Center
09:51PM 47.0840 -94.7220 60° Northeast 556 640 37,000  Level FlightAware
09:52PM 47.1390 -94.5750 61° Northeast 558 642 37,000  Level FlightAware
09:52PM 47.1800 -94.4640 61° Northeast 560 644 37,000  Level FlightAware
09:53PM 47.2380 -94.3080 61° Northeast 561 646 37,000  Level FlightAware
09:54PM 47.3060 -94.1230 61° Northeast 560 644 37,000  Level FlightAware
09:55PM 47.3520 -93.9990 61° Northeast 559 643 37,000  Level FlightAware
09:55PM 47.4100 -93.8360 62° Northeast 558 642 37,000  Level FlightAware
09:56PM 47.4650 -93.6850 62° Northeast 559 643 37,000  Level FlightAware
09:57PM 47.5140 -93.5490 62° Northeast 558 642 37,000  Level FlightAware
09:58PM 47.5620 -93.4130 62° Northeast 558 642 37,000  Level FlightAware
09:58PM 47.6120 -93.2730 62° Northeast 556 640 37,000  Level FlightAware
09:59PM 47.6620 -93.1290 63° Northeast 557 641 37,000  Level FlightAware
10:00PM 47.7150 -92.9800 62° Northeast 558 642 37,000  Level FlightAware
10:00PM 47.7630 -92.8420 63° Northeast 557 641 37,000  Level FlightAware
10:01PM 47.8150 -92.6930 62° Northeast 556 640 37,000  Level FlightAware
10:02PM 47.8650 -92.5490 63° Northeast 555 639 37,000  Level FlightAware
10:02PM 47.9110 -92.4150 63° Northeast 556 640 37,000  Level FlightAware
10:03PM 47.9630 -92.2620 63° Northeast 558 642 37,000  Level FlightAware
10:04PM 48.0080 -92.1280 63° Northeast 556 640 37,000  Level FlightAware
10:05PM 48.0590 -91.9790 63° Northeast 552 635 37,000  Level FlightAware
10:05PM 48.1050 -91.8400 64° Northeast 547 629 37,000  Level FlightAware
10:06PM 48.1530 -91.6980 63° Northeast 543 625 37,000  Level FlightAware
10:07PM 48.1990 -91.5590 64° Northeast 542 624 37,000  Level FlightAware
10:07PM 48.2480 -91.4110 64° Northeast 539 620 37,000  Level FlightAware
10:08PM 48.2890 -91.2870 64° Northeast 537 618 37,000  Level FlightAware
10:09PM 48.3360 -91.1480 63° Northeast 537 618 37,000  Level FlightAware
10:09PM 48.3730 -91.0370 63° Northeast 537 618 37,000  Level FlightAware
10:10PM 48.4070 -90.9350 63° Northeast 537 618 37,000  Level FlightAware
10:11PM 48.4800 -90.6960 65° Northeast 526 605 37,000  Level FlightAware
10:12PM 48.5200 -90.5710 64° Northeast 521 600 37,000  Level FlightAware
10:12PM 48.5700 -90.4150 64° Northeast 519 597 37,000  Level FlightAware
10:13PM 48.6110 -90.2840 65° Northeast 517 595 37,000  Level FlightAware
10:14PM 48.6660 -90.1120 64° Northeast 514 592 37,000  Level FlightAware
10:15PM 48.6990 -90.0100 64° Northeast 514 592 37,000  Level FlightAware
10:15PM 48.7410 -89.8780 64° Northeast 514 592 37,000  Level FlightAware
10:16PM 48.7730 -89.7790 64° Northeast 514 592 37,000  Level FlightAware
10:17PM 48.8150 -89.6470 64° Northeast 514 592 37,000  Level FlightAware
10:17PM 48.8470 -89.5470 64° Northeast 514 592 37,000  Level FlightAware
10:18PM 48.8900 -89.4150 64° Northeast 514 592 37,000  Level FlightAware
10:19PM 48.9200 -89.3210 64° Northeast 514 592 37,000  Level FlightAware
10:20PM 48.9630 -89.1880 64° Northeast 514 592 37,000  Level FlightAware
10:20PM 48.9950 -89.0850 65° Northeast 514 592 37,000  Level FlightAware
10:21PM 49.0360 -88.9580 64° Northeast 514 592 37,000  Level FlightAware
10:22PM 49.0900 -88.7890 64° Northeast 514 592 37,000  Level FlightAware
10:23PM 49.1250 -88.6780 64° Northeast 514 592 37,000  Level FlightAware
10:23PM 49.1470 -88.6110 63° Northeast 514 592 37,000  Level FlightAware
10:24PM 49.2500 -88.0833 63° Northeast 520 598 37,000  Level Winnipeg Center
10:25PM 49.3167 -87.8667 65° Northeast 510 587 37,000  Level Winnipeg Center
10:26PM 49.3667 -87.6833 67° East 510 587 37,000  Level Winnipeg Center
10:27PM 49.4167 -87.4667 70° East 510 587 37,000  Level Winnipeg Center
10:28PM 49.4667 -87.2667 69° East 510 587 37,000  Level Winnipeg Center
10:29PM 49.5333 -87.0833 61° Northeast 510 587 37,000  Level Winnipeg Center
10:30PM 49.5833 -86.8500 72° East 510 587 37,000 300 Level Winnipeg Center
10:31PM 49.6333 -86.6667 67° East 520 598 37,700 480 Climbing Winnipeg Center
10:32PM 49.7000 -86.4667 63° Northeast 520 598 38,000 120 Climbing Winnipeg Center
10:33PM 49.7333 -86.2833 74° East 510 587 38,000  Level Winnipeg Center
10:34PM 49.8000 -86.0500 66° East 510 587 38,000  Level Winnipeg Center
10:35PM 49.8500 -85.8500 69° East 520 598 38,000  Level Winnipeg Center
10:36PM 49.9167 -85.6333 64° Northeast 520 598 38,000  Level Winnipeg Center
10:37PM 49.9667 -85.4333 69° East 520 598 38,000  Level Winnipeg Center
10:38PM 50.0167 -85.2167 70° East 520 598 38,000  Level Winnipeg Center
10:39PM 50.0667 -85.0167 69° East 520 598 38,000  Level Winnipeg Center
10:40PM 50.1333 -84.7833 66° East 530 610 38,000  Level Winnipeg Center
10:41PM 50.1833 -84.6000 67° East 530 610 38,000  Level Winnipeg Center
10:42PM 50.2167 -84.3667 77° East 530 610 38,000  Level Winnipeg Center
10:43PM 50.2833 -84.1500 64° Northeast 530 610 38,000  Level Winnipeg Center
10:44PM 50.3167 -83.9500 75° East 520 598 38,000  Level Winnipeg Center
10:45PM 50.3833 -83.7167 66° East 520 598 38,000  Level Winnipeg Center
10:46PM 50.4167 -83.5167 75° East 520 598 38,000  Level Winnipeg Center
10:47PM 50.4833 -83.2833 66° East 520 598 38,000  Level Winnipeg Center
10:48PM 50.5333 -83.0833 68° East 520 598 38,000  Level Winnipeg Center
10:49PM 50.5833 -82.8833 68° East 520 598 38,000  Level Winnipeg Center
10:50PM 50.6167 -82.6500 77° East 520 598 38,000  Level Winnipeg Center
10:51PM 50.6833 -82.4500 62° Northeast 520 598 38,000  Level Winnipeg Center
10:52PM 50.7167 -82.2167 77° East 530 610 38,000  Level Winnipeg Center
10:53PM 50.7833 -82.0167 62° Northeast 530 610 38,000  Level Winnipeg Center
10:54PM 50.8167 -81.7833 77° East 530 610 38,000  Level Winnipeg Center
10:55PM 50.8667 -81.5833 68° East 530 610 38,000  Level Winnipeg Center
10:56PM 50.9167 -81.3500 71° East 530 610 38,000  Level Winnipeg Center
10:57PM 50.9667 -81.1167 71° East 530 610 38,000  Level Winnipeg Center
10:58PM 51.0167 -80.8833 71° East 530 610 38,000  Level Winnipeg Center
10:59PM 51.0500 -80.6833 75° East 540 621 38,000  Level Winnipeg Center
11:00PM 51.1000 -80.4500 71° East 540 621 38,000  Level Winnipeg Center
11:01PM 51.1500 -80.2333 70° East 540 621 38,000  Level Winnipeg Center
11:02PM 51.2000 -80.0000 71° East 540 621 38,000  Level Winnipeg Center
11:03PM 51.2500 -79.7667 71° East 540 621 38,000  Level Winnipeg Center
11:04PM 51.2833 -79.5333 77° East 550 633 38,000  Level Winnipeg Center
11:05PM 51.3500 -79.3000 65° Northeast 530 610 38,000  Level Montreal Center
11:06PM 51.4000 -79.0667 71° East 540 621 38,000  Level Montreal Center
11:07PM 51.4500 -78.8500 70° East 540 621 38,000  Level Montreal Center
11:08PM 51.5000 -78.5833 73° East 540 621 38,000  Level Montreal Center
11:09PM 51.5333 -78.3667 76° East 540 621 38,000  Level Montreal Center
11:10PM 51.5667 -78.1333 77° East 540 621 38,000  Level Montreal Center
11:11PM 51.6167 -77.8833 72° East 540 621 38,000  Level Montreal Center
11:12PM 51.6667 -77.6667 70° East 540 621 38,000  Level Montreal Center
11:13PM 51.7000 -77.4333 77° East 540 621 38,000  Level Montreal Center
11:14PM 51.7333 -77.2167 76° East 540 621 38,000  Level Montreal Center
11:15PM 51.7833 -76.9667 72° East 540 621 38,000  Level Montreal Center
11:16PM 51.8167 -76.7333 77° East 540 621 38,000  Level Montreal Center
11:17PM 51.8500 -76.5167 76° East 530 610 38,000  Level Montreal Center
11:18PM 51.9000 -76.2667 72° East 530 610 38,000  Level Montreal Center
11:19PM 51.9333 -76.0167 78° East 530 610 38,000  Level Montreal Center
11:20PM 51.9833 -75.7667 72° East 540 621 38,000  Level Montreal Center
11:21PM 52.0167 -75.5500 76° East 540 621 38,000  Level Montreal Center
11:22PM 52.0500 -75.3000 78° East 540 621 38,000  Level Montreal Center
11:23PM 52.0667 -75.0667 83° East 540 621 38,000  Level Montreal Center
11:24PM 52.1000 -74.8333 77° East 530 610 38,000  Level Montreal Center
11:25PM 52.1500 -74.6000 71° East 540 621 38,000  Level Montreal Center
11:26PM 52.1833 -74.3500 78° East 540 621 38,000 120 Level Montreal Center
11:27PM 52.2333 -74.1000 72° East 560 644 38,300 480 Climbing Montreal Center
11:28PM 52.2667 -73.8667 77° East 550 633 39,000 300 Climbing Montreal Center
11:29PM 52.2833 -73.6000 84° East 550 633 39,000  Level Montreal Center
11:30PM 52.3167 -73.3500 78° East 550 633 39,000  Level Montreal Center
11:31PM 52.3667 -73.1167 71° East 560 644 39,000  Level Montreal Center
11:32PM 52.3833 -72.8500 84° East 560 644 39,000  Level Montreal Center
11:33PM 52.4167 -72.6167 77° East 560 644 39,000  Level Montreal Center
11:34PM 52.4667 -72.3500 73° East 570 656 39,000  Level Montreal Center
11:35PM 52.4833 -72.1000 84° East 560 644 39,000  Level Montreal Center
11:36PM 52.5167 -71.8333 78° East 560 644 39,000  Level Montreal Center
11:37PM 52.5333 -71.6167 83° East 550 633 39,000  Level Montreal Center
11:38PM 52.5833 -71.3667 72° East 550 633 39,000  Level Montreal Center
11:39PM 52.6000 -71.1167 84° East 550 633 39,000  Level Montreal Center
11:40PM 52.6167 -70.8500 84° East 550 633 39,000  Level Montreal Center
11:41PM 52.6333 -70.7500 75° East 550 633 39,000  Level Gander Center
11:42PM 52.6833 -70.4833 73° East 560 644 39,000  Level Gander Center
11:43PM 52.7000 -70.2333 84° East 550 633 39,000  Level Gander Center
11:44PM 52.7333 -70.0000 77° East 550 633 39,000  Level Gander Center
11:45PM 52.7500 -69.7500 84° East 540 621 39,000  Level Gander Center
11:46PM 52.7667 -69.5000 84° East 550 633 39,000  Level Gander Center
11:47PM 52.8000 -69.2500 77° East 550 633 39,000  Level Gander Center
11:48PM 52.8167 -69.0167 83° East 550 633 39,000  Level Gander Center
11:49PM 52.8500 -68.7667 77° East 540 621 39,000  Level Gander Center
11:50PM 52.9000 -68.5167 72° East 540 621 39,000  Level Gander Center
11:51PM 52.9333 -68.2833 77° East 540 621 39,000  Level Gander Center
11:52PM 52.9500 -68.0333 84° East 540 621 39,000  Level Gander Center
11:53PM 52.9833 -67.7667 78° East 540 621 39,000  Level Gander Center
11:54PM 53.0167 -67.5333 77° East 540 621 39,000  Level Gander Center
11:55PM 53.0500 -67.3000 77° East 540 621 39,000  Level Gander Center
11:56PM 53.0667 -67.0500 84° East 550 633 39,000  Level Gander Center
11:57PM 53.1000 -66.8000 77° East 540 621 39,000  Level Gander Center
11:58PM 53.1333 -66.5500 77° East 550 633 39,000  Level Gander Center
11:59PM 53.1500 -66.3000 84° East 550 633 39,000  Level Gander Center
12:00AM 53.1833 -66.0500 77° East 540 621 39,000  Level Gander Center
12:01AM 53.2167 -65.8000 77° East 540 621 39,000  Level Gander Center
12:03AM 53.2667 -65.4000 78° East 550 633 39,000  Level Gander Center
12:03AM 53.2667 -65.1833 90° East 550 633 39,000  Level Montreal Center
12:04AM 53.2833 -65.0667 77° East 550 633 39,000  Level Gander Center
12:05AM 53.3167 -64.7833 79° East 550 633 39,000  Level Gander Center
12:06AM 53.3333 -64.5667 83° East 550 633 39,000  Level Gander Center
12:07AM 53.3667 -64.2833 79° East 550 633 39,000  Level Gander Center
12:08AM 53.3833 -64.0333 84° East 550 633 39,000  Level Gander Center
12:09AM 53.4000 -63.8000 83° East 550 633 39,000  Level Gander Center
12:10AM 53.4333 -63.5333 78° East 550 633 39,000  Level Gander Center
12:11AM 53.4500 -63.2833 84° East 550 633 39,000  Level Gander Center
12:12AM 53.4667 -63.0167 84° East 550 633 39,000  Level Gander Center
12:13AM 53.4833 -62.7667 84° East 550 633 39,000  Level Gander Center
12:14AM 53.5000 -62.5167 84° East 550 633 39,000  Level Gander Center
12:15AM 53.5333 -62.2667 77° East 550 633 39,000  Level Gander Center
12:16AM 53.5500 -62.0167 83° East 550 633 39,000  Level Gander Center
12:17AM 53.5833 -61.7667 77° East 550 633 39,000  Level Gander Center
12:18AM 53.5833 -61.5000 90° East 550 633 39,000  Level Gander Center
12:19AM 53.6167 -61.2500 77° East 550 633 39,000  Level Gander Center
12:20AM 53.6333 -61.0000 83° East 540 621 39,000  Level Gander Center
12:21AM 53.6500 -60.7500 83° East 540 621 39,000  Level Gander Center
12:22AM 53.6667 -60.5000 83° East 550 633 39,000  Level Gander Center
12:23AM 53.6667 -60.3167 90° East 550 633 39,000  Level Gander Center
12:24AM 53.6667 -60.0667 90° East 550 633 39,000  Level Gander Center
12:25AM 53.6833 -59.8167 83° East 550 633 39,000  Level Gander Center
12:26AM 53.7000 -59.5667 83° East 550 633 39,000  Level Gander Center
12:27AM 53.7167 -59.3000 84° East 550 633 39,000  Level Gander Center
12:28AM 53.7333 -59.0500 83° East 540 621 39,000  Level Gander Center
12:29AM 53.7333 -58.8000 90° East 550 633 39,000  Level Gander Center
12:30AM 53.7500 -58.5333 84° East 550 633 39,000  Level Gander Center
12:31AM 53.7667 -58.2833 83° East 550 633 39,000  Level Gander Center
12:32AM 53.7667 -58.0333 90° East 540 621 39,000  Level Gander Center
12:33AM 53.7833 -57.7667 84° East 540 621 39,000  Level Gander Center
12:34AM 53.7833 -57.5167 90° East 550 633 39,000  Level Gander Center
12:35AM 53.8167 -57.2333 79° East 550 633 39,000  Level Gander Center
12:36AM 53.8167 -57.0000 90° East 550 633 39,000  Level Gander Center
12:37AM 53.8333 -56.7500 83° East 550 633 39,000  Level Gander Center
12:38AM 53.8167 -56.5000 96° East 540 621 39,000  Level Gander Center
12:39AM 53.8500 -56.2333 78° East 540 621 39,000  Level Gander Center
12:40AM 53.8500 -55.9833 90° East 540 621 39,000  Level Gander Center
12:41AM 53.8500 -55.7167 90° East 540 621 39,000  Level Gander Center
12:42AM 53.8500 -55.4333 90° East 540 621 39,000  Level Gander Center
12:43AM 53.8667 -55.2167 82° East 540 621 39,000  Level Gander Center
12:44AM 53.8667 -54.9333 90° East 550 633 39,000  Level Gander Center
12:45AM 53.8500 -54.7000 97° East 550 633 39,000  Level Gander Center
12:46AM 53.8667 -54.4500 83° East 550 633 39,000  Level Gander Center
12:47AM 53.8667 -54.1500 90° East 550 633 39,000  Level Gander Center
12:48AM 53.8833 -53.9333 82° East 550 633 39,000  Level Gander Center
12:49AM 53.9000 -53.6667 84° East 550 633 39,000  Level Gander Center
12:50AM 53.9000 -53.4167 90° East 550 633 39,000  Level Gander Center
12:51AM 53.9167 -53.1500 84° East 550 633 39,000  Level Gander Center
12:52AM 53.9167 -52.9000 90° East 550 633 39,000  Level Gander Center
12:53AM 53.9333 -52.6333 84° East 550 633 39,000  Level Gander Center
12:54AM 53.9167 -52.3833 96° East 550 633 39,000  Level Gander Center
12:55AM 53.9333 -52.1167 84° East 550 633 39,000  Level Gander Center
12:56AM 53.9333 -51.8667 90° East 550 633 39,000  Level Gander Center
12:57AM 53.9500 -51.6000 84° East 550 633 39,000  Level Gander Center
12:58AM 53.9500 -51.3500 90° East 550 633 39,000  Level Gander Center
12:59AM 53.9500 -51.0833 90° East 550 633 39,000  Level Gander Center
01:00AM 53.9667 -50.8333 83° East 550 633 39,000  Level Gander Center
01:01AM 53.9667 -50.5667 90° East 550 633 39,000  Level Gander Center
01:03AM 53.9922 -50.1372 84° East  Level FlightAware Approximate
01:03AM 53.9667 -49.8833 84° East 310 357 39,000  Level Gander Center
01:05AM 53.9874 -49.5759 83° East  Level FlightAware Approximate
01:12AM 54.0685 -47.8681 87° East  Level FlightAware Approximate
01:13AM 54.0740 -47.6234 88° East  Level FlightAware Approximate
01:14AM 54.0790 -47.3787 88° East  Level FlightAware Approximate
01:15AM 54.0835 -47.1338 88° East  Level FlightAware Approximate
01:16AM 54.0876 -46.8890 88° East  Level FlightAware Approximate
01:17AM 54.0911 -46.6441 88° East  Level FlightAware Approximate
01:18AM 54.0941 -46.3991 89° East  Level FlightAware Approximate
01:19AM 54.0966 -46.1541 89° East  Level FlightAware Approximate
01:20AM 54.0987 -45.9091 89° East  Level FlightAware Approximate
01:21AM 54.1002 -45.6641 89° East  Level FlightAware Approximate
01:22AM 54.1014 -45.4190 89° East  Level FlightAware Approximate
01:23AM 54.1021 -45.1740 90° East  Level FlightAware Approximate
01:24AM 54.1022 -44.9289 90° East  Level FlightAware Approximate
01:25AM 54.1019 -44.6839 90° East  Level FlightAware Approximate
01:26AM 54.1011 -44.4388 90° East  Level FlightAware Approximate
01:27AM 54.0998 -44.1938 90° East  Level FlightAware Approximate
01:28AM 54.0980 -43.9487 91° East  Level FlightAware Approximate
01:29AM 54.0957 -43.7038 91° East  Level FlightAware Approximate
01:30AM 54.0929 -43.4588 91° East  Level FlightAware Approximate
01:31AM 54.0896 -43.2138 91° East  Level FlightAware Approximate
01:32AM 54.0858 -42.9690 91° East  Level FlightAware Approximate
01:33AM 54.0815 -42.7241 92° East  Level FlightAware Approximate
01:34AM 54.0767 -42.4793 92° East  Level FlightAware Approximate
01:35AM 54.0714 -42.2346 92° East  Level FlightAware Approximate
01:36AM 54.0656 -41.9899 92° East  Level FlightAware Approximate
01:37AM 54.0593 -41.7453 92° East  Level FlightAware Approximate
01:38AM 54.0526 -41.5008 93° East  Level FlightAware Approximate
01:39AM 54.0453 -41.2564 93° East  Level FlightAware Approximate
01:40AM 54.0375 -41.0121 93° East  Level FlightAware Approximate
01:41AM 54.0292 -40.7678 93° East  Level FlightAware Approximate
01:42AM 54.0205 -40.5237 93° East  Level FlightAware Approximate
01:43AM 54.0112 -40.2796 94° East  Level FlightAware Approximate
01:44AM 54.0015 -40.0357 94° East  Level FlightAware Approximate
01:45AM 54.0084 -39.7918 86° East  Level FlightAware Approximate
01:46AM 54.0179 -39.5478 86° East  Level FlightAware Approximate
01:47AM 54.0268 -39.3036 86° East  Level FlightAware Approximate
01:48AM 54.0353 -39.0594 87° East  Level FlightAware Approximate
01:49AM 54.0432 -38.8151 87° East  Level FlightAware Approximate
01:50AM 54.0507 -38.5707 87° East  Level FlightAware Approximate
01:51AM 54.0576 -38.3262 87° East  Level FlightAware Approximate
01:52AM 54.0641 -38.0816 87° East  Level FlightAware Approximate
01:53AM 54.0700 -37.8370 88° East  Level FlightAware Approximate
01:54AM 54.0755 -37.5923 88° East  Level FlightAware Approximate
01:55AM 54.0805 -37.3475 88° East  Level FlightAware Approximate
01:56AM 54.0849 -37.1027 88° East  Level FlightAware Approximate
01:57AM 54.0889 -36.8578 88° East  Level FlightAware Approximate
01:58AM 54.0924 -36.6129 89° East  Level FlightAware Approximate
01:59AM 54.0954 -36.3679 89° East  Level FlightAware Approximate
02:00AM 54.0979 -36.1229 89° East  Level FlightAware Approximate
02:01AM 54.0999 -35.8779 89° East  Level FlightAware Approximate
02:02AM 54.1013 -35.6329 89° East  Level FlightAware Approximate
02:03AM 54.1023 -35.3878 90° East  Level FlightAware Approximate
02:04AM 54.1028 -35.1428 90° East  Level FlightAware Approximate
02:05AM 54.1028 -34.8977 90° East  Level FlightAware Approximate
02:06AM 54.1023 -34.6526 90° East  Level FlightAware Approximate
02:07AM 54.1013 -34.4076 90° East  Level FlightAware Approximate
02:08AM 54.0998 -34.1625 90° East  Level FlightAware Approximate
02:09AM 54.0978 -33.9175 91° East  Level FlightAware Approximate
02:10AM 54.0953 -33.6725 91° East  Level FlightAware Approximate
02:11AM 54.0924 -33.4276 91° East  Level FlightAware Approximate
02:12AM 54.0889 -33.1827 91° East  Level FlightAware Approximate
02:13AM 54.0849 -32.9378 91° East  Level FlightAware Approximate
02:14AM 54.0805 -32.6930 92° East  Level FlightAware Approximate
02:15AM 54.0757 -32.4482 92° East  Level FlightAware Approximate
02:16AM 54.0704 -32.2034 92° East  Level FlightAware Approximate
02:17AM 54.0645 -31.9588 92° East  Level FlightAware Approximate
02:18AM 54.0582 -31.7142 92° East  Level FlightAware Approximate
02:19AM 54.0514 -31.4697 93° East  Level FlightAware Approximate
02:20AM 54.0441 -31.2253 93° East  Level FlightAware Approximate
02:21AM 54.0363 -30.9809 93° East  Level FlightAware Approximate
02:22AM 54.0280 -30.7367 93° East  Level FlightAware Approximate
02:23AM 54.0192 -30.4926 93° East  Level FlightAware Approximate
02:24AM 54.0100 -30.2485 94° East  Level FlightAware Approximate
02:25AM 54.0002 -30.0046 94° East  Level FlightAware Approximate
02:26AM 54.0335 -29.7669 76° East  Level FlightAware Approximate
02:27AM 54.0671 -29.5289 76° East  Level FlightAware Approximate
02:28AM 54.1002 -29.2906 77° East  Level FlightAware Approximate
02:29AM 54.1329 -29.0519 77° East  Level FlightAware Approximate
02:30AM 54.1651 -28.8128 77° East  Level FlightAware Approximate
02:31AM 54.1969 -28.5733 77° East  Level FlightAware Approximate
02:32AM 54.2282 -28.3335 77° East  Level FlightAware Approximate
02:33AM 54.2589 -28.0933 78° East  Level FlightAware Approximate
02:34AM 54.2893 -27.8528 78° East  Level FlightAware Approximate
02:35AM 54.3191 -27.6119 78° East  Level FlightAware Approximate
02:36AM 54.3484 -27.3706 78° East  Level FlightAware Approximate
02:37AM 54.3773 -27.1290 78° East  Level FlightAware Approximate
02:38AM 54.4057 -26.8871 79° East  Level FlightAware Approximate
02:39AM 54.4336 -26.6449 79° East  Level FlightAware Approximate
02:40AM 54.4610 -26.4023 79° East  Level FlightAware Approximate
02:41AM 54.4879 -26.1594 79° East  Level FlightAware Approximate
02:42AM 54.5144 -25.9162 79° East  Level FlightAware Approximate
02:43AM 54.5403 -25.6726 79° East  Level FlightAware Approximate
02:44AM 54.5658 -25.4288 80° East  Level FlightAware Approximate
02:45AM 54.5908 -25.1847 80° East  Level FlightAware Approximate
02:46AM 54.6152 -24.9402 80° East  Level FlightAware Approximate
02:47AM 54.6392 -24.6955 80° East  Level FlightAware Approximate
02:48AM 54.6627 -24.4505 80° East  Level FlightAware Approximate
02:49AM 54.6857 -24.2052 81° East  Level FlightAware Approximate
02:50AM 54.7082 -23.9596 81° East  Level FlightAware Approximate
02:51AM 54.7303 -23.7138 81° East  Level FlightAware Approximate
02:52AM 54.7518 -23.4676 81° East  Level FlightAware Approximate
02:53AM 54.7728 -23.2213 81° East  Level FlightAware Approximate
02:54AM 54.7933 -22.9747 82° East  Level FlightAware Approximate
02:55AM 54.8133 -22.7278 82° East  Level FlightAware Approximate
02:56AM 54.8328 -22.4807 82° East  Level FlightAware Approximate
02:57AM 54.8518 -22.2334 82° East  Level FlightAware Approximate
02:58AM 54.8703 -21.9858 83° East  Level FlightAware Approximate
02:59AM 54.8883 -21.7380 83° East  Level FlightAware Approximate
03:00AM 54.9058 -21.4900 83° East  Level FlightAware Approximate
03:01AM 54.9228 -21.2417 83° East  Level FlightAware Approximate
03:02AM 54.9393 -20.9933 83° East  Level FlightAware Approximate
03:03AM 54.9553 -20.7447 84° East  Level FlightAware Approximate
03:04AM 54.9707 -20.4958 84° East  Level FlightAware Approximate
03:05AM 54.9850 -20.2590 84° East  Level FlightAware Approximate
03:06AM 54.9987 -20.0221 84° East  Level FlightAware Approximate
03:07AM 54.9692 -19.7908 104° East  Level FlightAware Approximate
03:08AM 54.9348 -19.5606 104° East  Level FlightAware Approximate
03:09AM 54.8999 -19.3307 105° East  Level FlightAware Approximate
03:10AM 54.8646 -19.1012 105° East  Level FlightAware Approximate
03:11AM 54.8289 -18.8721 105° East  Level FlightAware Approximate
03:12AM 54.7928 -18.6435 105° East  Level FlightAware Approximate
03:13AM 54.7562 -18.4152 105° East  Level FlightAware Approximate
03:14AM 54.7192 -18.1874 106° East  Level FlightAware Approximate
03:15AM 54.6818 -17.9600 106° East  Level FlightAware Approximate
03:16AM 54.6439 -17.7330 106° East  Level FlightAware Approximate
03:17AM 54.6056 -17.5064 106° East  Level FlightAware Approximate
03:18AM 54.5669 -17.2802 106° East  Level FlightAware Approximate
03:19AM 54.5278 -17.0545 107° East  Level FlightAware Approximate
03:20AM 54.4883 -16.8292 107° East  Level FlightAware Approximate
03:21AM 54.4483 -16.6044 107° East  Level FlightAware Approximate
03:22AM 54.4080 -16.3800 107° East  Level FlightAware Approximate
03:23AM 54.3672 -16.1560 107° East  Level FlightAware Approximate
03:24AM 54.3260 -15.9325 107° East  Level FlightAware Approximate
03:25AM 54.2843 -15.7095 108° East  Level FlightAware Approximate
03:26AM 54.2423 -15.4868 108° East  Level FlightAware Approximate
03:27AM 54.1999 -15.2647 108° East  Level FlightAware Approximate
03:27AM 54.6880 -13.7450 108° East 524 603 39,000  Level FlightAware
03:28AM 54.1570 -15.0430 108° East  Level FlightAware Approximate
03:28AM 54.6440 -13.5750 114° Southeast 523 602 39,000  Level FlightAware
03:28AM 54.6060 -13.4270 114° Southeast 523 602 39,000  Level FlightAware
03:29AM 54.5650 -13.2700 114° Southeast 522 601 39,000  Level FlightAware
03:30AM 54.5220 -13.1030 114° Southeast 520 598 39,000  Level FlightAware
03:30AM 54.4810 -12.9480 114° Southeast 520 598 39,000  Level FlightAware
03:31AM 54.4360 -12.7800 115° Southeast 521 600 39,000  Level FlightAware
03:32AM 54.4000 -12.6460 115° Southeast 520 598 39,000  Level FlightAware
03:32AM 54.3520 -12.4650 114° Southeast 519 597 39,000  Level FlightAware
03:33AM 54.3110 -12.3140 115° Southeast 517 595 39,000  Level FlightAware
03:34AM 54.2690 -12.1630 115° Southeast 515 593 39,000  Level FlightAware
03:35AM 54.2280 -12.0140 115° Southeast 518 596 39,000  Level FlightAware
03:35AM 54.1820 -11.8450 115° Southeast 523 602 39,000  Level FlightAware
03:36AM 54.1400 -11.6960 116° Southeast 524 603 39,000  Level FlightAware
03:37AM 54.0930 -11.5290 116° Southeast 522 601 39,000  Level FlightAware
03:37AM 54.0510 -11.3810 116° Southeast 520 598 39,000  Level FlightAware
03:38AM 54.0040 -11.2140 116° Southeast 521 600 39,000  Level FlightAware
03:39AM 53.9610 -11.0650 116° Southeast 522 601 39,000  Level FlightAware
03:39AM 53.9190 -10.9190 116° Southeast 523 602 39,000  Level FlightAware
03:40AM 53.8710 -10.7540 116° Southeast 521 600 39,000  Level FlightAware
03:41AM 53.8280 -10.6080 116° Southeast 518 596 39,000  Level FlightAware
03:42AM 53.7850 -10.4610 116° Southeast 520 598 39,000  Level FlightAware
03:42AM 53.7420 -10.3160 117° Southeast 521 600 39,000  Level FlightAware
03:43AM 53.6940 -10.1520 116° Southeast 523 602 39,000  Level FlightAware
03:44AM 53.6500 -10.0070 117° Southeast 524 603 39,000  Level FlightAware
03:44AM 53.6000 -9.8410 117° Southeast 527 606 39,000  Level FlightAware
03:45AM 53.5560 -9.6960 117° Southeast 527 606 39,000  Level FlightAware
03:46AM 53.5100 -9.5460 117° Southeast 529 609 39,000  Level FlightAware
03:46AM 53.4610 -9.3840 117° Southeast 531 611 39,000  Level FlightAware
03:47AM 53.4150 -9.2360 117° Southeast 532 612 39,000  Level FlightAware
03:48AM 53.3640 -9.0730 118° Southeast 530 610 39,000  Level FlightAware
03:49AM 53.3180 -8.9260 118° Southeast 530 610 39,000  Level FlightAware
03:49AM 53.2691 -8.7707 118° Southeast 488 562 39,000  Level FlightAware UK
03:49AM 53.2670 -8.7640 118° Southeast 531 611 39,000  Level FlightAware
03:50AM 53.2200 -8.6150 118° Southeast 530 610 39,000  Level FlightAware
03:51AM 53.1740 -8.4720 118° Southeast 531 611 39,000  Level FlightAware
03:51AM 53.1298 -8.3348 118° Southeast 490 564 39,000  Level FlightAware UK
03:51AM 53.1270 -8.3270 118° Southeast 530 610 39,000  Level FlightAware
03:52AM 53.0740 -8.1640 118° Southeast 529 609 39,000  Level FlightAware
03:53AM 53.0280 -8.0220 118° Southeast 528 608 39,000  Level FlightAware
03:53AM 53.0245 -8.0100 118° Southeast 488 562 39,000  Level FlightAware UK
03:53AM 52.9893 -7.9026 118° Southeast 486 559 39,000  Level FlightAware UK
03:53AM 52.9750 -7.8590 118° Southeast 528 608 39,000  Level FlightAware
03:54AM 52.9290 -7.7180 118° Southeast 532 612 39,000  Level FlightAware
03:55AM 52.8764 -7.5605 118° Southeast 488 562 39,000  Level FlightAware UK
03:55AM 52.8750 -7.5580 118° Southeast 532 612 39,000  Level FlightAware
03:56AM 52.8270 -7.4140 119° Southeast 532 612 39,000  Level FlightAware
03:56AM 52.7810 -7.2740 118° Southeast 530 610 39,000  Level FlightAware
03:57AM 52.7337 -7.1343 118° Southeast 488 562 39,000  Level FlightAware UK
03:57AM 52.7270 -7.1160 118° Southeast 529 609 39,000  Level FlightAware
03:58AM 52.6810 -6.9810 119° Southeast 528 608 39,000  Level FlightAware
03:58AM 52.6265 -6.8189 119° Southeast 486 559 39,000  Level FlightAware UK
03:58AM 52.6250 -6.8170 119° Southeast 530 610 39,000  Level FlightAware
03:59AM 52.5770 -6.6770 119° Southeast 531 611 39,000  Level FlightAware
04:00AM 52.5230 -6.5200 119° Southeast 533 613 39,000  Level FlightAware
04:00AM 52.4790 -6.3940 119° Southeast 534 615 39,000  Level FlightAware
04:00AM 52.4739 -6.3775 119° Southeast 488 562 39,000  Level FlightAware UK
04:01AM 52.4373 -6.2722 119° Southeast 486 559 39,000  Level FlightAware UK
04:01AM 52.4200 -6.2250 119° Southeast 533 613 39,000  Level FlightAware
04:02AM 52.3740 -6.0930 120° Southeast 533 613 39,000  Level FlightAware
04:03AM 52.3130 -5.9230 120° Southeast 534 615 39,000  Level FlightAware
04:03AM 52.2741 -5.8114 120° Southeast 484 557 39,000  Level FlightAware UK
04:03AM 52.2650 -5.7860 120° Southeast 534 615 39,000  Level FlightAware
04:04AM 52.2340 -5.6660 113° Southeast 536 617 39,000  Level FlightAware
04:05AM 52.1970 -5.4560 106° East 538 619 39,000  Level FlightAware
04:05AM 52.1660 -5.2950 107° East 539 620 39,000  Level FlightAware
04:06AM 52.1380 -5.1400 106° East 539 620 39,000  Level FlightAware
04:07AM 52.1127 -5.0060 106° East 486 559 39,000  Level FlightAware UK
04:07AM 52.1090 -4.9880 106° East 540 621 39,000  Level FlightAware
04:07AM 52.0770 -4.8170 107° East 539 620 39,000  Level FlightAware
04:08AM 52.0470 -4.6630 108° East 539 620 39,000  Level FlightAware
04:09AM 52.0170 -4.5050 107° East 539 620 39,000  Level FlightAware
04:09AM 51.9881 -4.3572 107° East 482 555 39,000  Level FlightAware UK
04:10AM 51.9840 -4.3370 107° East 542 624 39,000  Level FlightAware
04:10AM 51.9520 -4.1740 108° East 543 625 39,000  Level FlightAware
04:11AM 51.9190 -4.0080 108° East 544 626 39,000  Level FlightAware
04:12AM 51.8860 -3.8440 108° East 541 623 39,000  Level FlightAware
04:12AM 51.8580 -3.7040 108° East 541 623 39,000  Level FlightAware
04:13AM 51.8218 -3.5242 108° East 488 562 39,000  Level FlightAware UK
04:13AM 51.8220 -3.5260 108° East 542 624 39,000  Level FlightAware
04:14AM 51.7935 -3.3863 108° East 486 559 39,000  Level FlightAware UK
04:14AM 51.7910 -3.3750 108° East 540 621 39,000  Level FlightAware
04:15AM 51.7540 -3.1930 108° East 538 619 39,000  Level FlightAware
04:15AM 51.7224 -3.0425 108° East 488 562 39,000  Level FlightAware UK
04:15AM 51.7210 -3.0370 108° East 535 616 39,000  Level FlightAware
04:16AM 51.6939 -2.9072 108° East 492 566 39,000  Level FlightAware UK
04:16AM 51.6880 -2.8780 108° East 532 612 39,000  Level FlightAware
04:17AM 51.6570 -2.7340 109° East 528 608 39,000  Level FlightAware
04:17AM 51.6230 -2.5740 109° East 525 604 39,000  Level FlightAware
04:18AM 51.5945 -2.4397 109° East 486 559 39,000  Level FlightAware UK
04:18AM 51.5900 -2.4190 109° East 522 601 39,000  Level FlightAware
04:19AM 51.5580 -2.2730 109° East 522 601 39,000  Level FlightAware
04:19AM 51.5140 -2.1200 115° Southeast 523 602 39,000  Level FlightAware
04:20AM 51.4650 -1.9680 117° Southeast 524 603 39,000  Level FlightAware
04:21AM 51.4210 -1.8330 118° Southeast 523 602 39,000  Level FlightAware
04:21AM 51.3760 -1.6940 117° Southeast 524 603 39,000  Level FlightAware
04:22AM 51.3260 -1.5420 118° Southeast 532 612 39,000  Level FlightAware
04:23AM 51.2810 -1.4060 118° Southeast 530 610 39,000  Level FlightAware
04:24AM 51.2330 -1.2590 117° Southeast 529 609 39,000  Level FlightAware
04:24AM 51.1830 -1.1110 118° Southeast 532 612 39,000 -420 Level FlightAware
04:25AM 51.1386 -0.9778 118° Southeast 488 562 38,500 -840 Descending FlightAware UK
04:25AM 51.1330 -0.9610 118° Southeast 529 609 38,400 -840 Descending FlightAware
04:26AM 51.0830 -0.8130 118° Southeast 538 619 37,800 -1,020 Descending FlightAware
04:26AM 51.0380 -0.6810 118° Southeast 538 619 37,100 -1,020 Descending FlightAware
04:27AM 50.9860 -0.5270 118° Southeast 545 627 36,400 -1,020 Descending FlightAware
04:28AM 50.9319 -0.3712 118° Southeast 476 548 35,600 -960 Descending FlightAware UK
04:28AM 50.9330 -0.3740 118° Southeast 543 625 35,700 -2,100 Climbing FlightAware
04:29AM 50.8800 -0.2200 119° Southeast 539 620 34,100 -2,040 Descending FlightAware
04:29AM 50.8340 -0.0900 119° Southeast 531 611 32,900 -2,280 Descending FlightAware
04:30AM 50.7740 0.0380 127° Southeast 538 619 31,100 -2,040 Descending FlightAware
04:31AM 50.7030 0.1760 129° Southeast 525 604 30,100 -1,380 Descending FlightAware
04:31AM 50.6440 0.2920 129° Southeast 506 582 29,200 -1,560 Descending FlightAware
04:32AM 50.5880 0.3870 133° Southeast 501 577 28,100 -1,920 Descending FlightAware
04:33AM 50.5056 0.4816 133° Southeast 428 493 26,700 -1,920 Descending FlightAware UK
04:33AM 50.5060 0.4820 133° Southeast 493 567 26,700 -780 Level FlightAware
04:33AM 50.4430 0.5580 142° Southeast 469 540 26,200 -540 Descending FlightAware
04:34AM 50.3630 0.6540 142° Southeast 450 518 26,000 -240 Descending FlightAware
04:34AM 50.3508 0.6686 142° Southeast 386 444 26,000 -180 Level FlightAware UK
04:35AM 50.2977 0.7189 142° Southeast 384 442 25,900  Descending FlightAware UK
04:35AM 50.2880 0.7280 142° Southeast 445 512 26,000 60 Climbing FlightAware
04:35AM 50.2090 0.7950 152° Southeast 445 512 26,000 -1,380 Level FlightAware
04:37AM 50.0889 0.8984 152° Southeast 414 476 23,600 -1,980 Descending FlightAware UK
04:37AM 50.0680 0.9160 152° Southeast 466 536 23,500 -1,500 Descending FlightAware
04:37AM 49.9989 0.9767 152° Southeast 406 467 22,400 -1,800 Descending FlightAware UK
04:37AM 49.9930 0.9820 152° Southeast 458 527 22,300 -1,620 Descending FlightAware
04:38AM 49.9215 1.0434 152° Southeast 398 458 21,300 -1,500 Descending FlightAware UK
04:38AM 49.9130 1.0510 152° Southeast 451 519 21,200 -1,380 Descending FlightAware
04:39AM 49.8360 1.1170 151° Southeast 440 506 20,200 -1,200 Descending FlightAware
04:39AM 49.7710 1.1730 151° Southeast 414 476 19,600 -1,020 Descending FlightAware
04:40AM 49.6980 1.2040 165° South 371 427 18,900 -1,380 Descending FlightAware
04:41AM 49.6220 1.2270 169° South 362 417 17,600 -1,680 Descending FlightAware
04:42AM 49.5630 1.2450 169° South 347 399 16,500 -1,860 Descending FlightAware
04:42AM 49.5523 1.2481 169° South 320 368 16,300 -2,880 Descending FlightAware UK
04:42AM 49.4920 1.2820 169° South 381 438 14,500 -2,580 Descending FlightAware
04:42AM 49.4873 1.2883 169° South 348 400 14,500 -1,320 Level FlightAware UK
04:43AM 49.4500 1.3440 169° South 344 396 13,800 -1,320 Descending FlightAware UK
04:43AM 49.4430 1.3540 169° South 364 419 13,700 -1,620 Descending FlightAware
04:44AM 49.3870 1.4370 136° Southeast 363 418 12,400 -1,680 Descending FlightAware
04:44AM 49.3468 1.4966 136° Southeast 334 384 11,600 -1,380 Descending FlightAware UK
04:44AM 49.3390 1.5100 136° Southeast 355 409 11,500 -1,020 Descending FlightAware
04:45AM 49.3014 1.5769 136° Southeast 330 380 10,900 -660 Descending FlightAware UK
04:45AM 49.2980 1.6020 136° Southeast 350 403 11,000 120 Climbing FlightAware
04:46AM 49.2949 1.6942 136° Southeast 330 380 11,000  Level FlightAware UK
04:46AM 49.2940 1.7110 136° Southeast 350 403 11,000  Level FlightAware
04:46AM 49.2900 1.7970 94° East 350 403 11,000  Level FlightAware
04:47AM 49.2850 1.9100 94° East 342 394 11,000  Level FlightAware
04:48AM 49.2800 1.9990 95° East 316 364 11,000  Level FlightAware
04:49AM 49.2760 2.0890 95° East 314 361 11,000  Level FlightAware
04:49AM 49.2802 2.1157 95° East 294 338 11,000  Level FlightAware UK
04:49AM 49.2738 2.1904 95° East 292 336 11,000  Level FlightAware UK
04:49AM 49.2710 2.1890 95° East 312 359 11,000  Level FlightAware
04:50AM 49.2694 2.2691 95° East 294 338 11,000  Level FlightAware UK
04:50AM 49.2670 2.2790 95° East 315 362 11,000  Level FlightAware
04:51AM 49.2620 2.3780 94° East 315 362 11,000 -240 Level FlightAware
04:51AM 49.2570 2.4760 94° East 303 349 10,700 -480 Descending FlightAware
04:52AM 49.2520 2.5470 96° East 283 326 10,400 -720 Descending FlightAware
04:53AM 49.2410 2.6340 101° East 268 308 9,800 -960 Descending FlightAware
04:53AM 49.2350 2.6900 99° East 270 311 9,300 -1,140 Descending FlightAware
04:54AM 49.2290 2.7340 102° East 270 311 8,800 -1,200 Descending FlightAware
04:54AM 49.2240 2.7760 100° East 270 311 8,400 -960 Descending FlightAware
04:54AM 49.2200 2.8130 99° East 267 307 8,100 -960 Descending FlightAware
04:55AM 49.2130 2.8700 101° East 264 304 7,600 -1,080 Descending FlightAware
04:55AM 49.2100 2.8970 100° East 261 300 7,400 -960 Descending FlightAware
04:56AM 49.2030 2.9530 101° East 255 293 6,900 -960 Descending FlightAware
04:56AM 49.1990 2.9860 100° East 253 291 6,600 -960 Descending FlightAware
04:57AM 49.1930 3.0440 99° East 252 290 6,100 -600 Descending FlightAware
04:57AM 49.1780 3.0910 116° Southeast 251 289 6,000 -120 Descending FlightAware
04:57AM 49.1590 3.1280 128° Southeast 247 284 6,000  Level FlightAware
04:58AM 49.1370 3.1640 133° Southeast 238 274 6,000 -660 Level FlightAware
04:58AM 49.1050 3.1850 157° South 241 277 5,400 -1,380 Descending FlightAware
04:59AM 49.0770 3.1670 203° Southwest 228 262 4,700 -1,320 Descending FlightAware
04:59AM 49.0690 3.1520 231° Southwest 225 259 4,500 -840 Descending FlightAware
05:00AM 49.0550 3.1210 235° Southwest 218 251 4,200 -600 Descending FlightAware
05:00AM 49.0390 3.0840 237° Southwest 204 235 4,000 -360 Descending FlightAware
05:00AM 49.0250 3.0530 235° Southwest 183 211 3,900 -300 Descending FlightAware
05:01AM 49.0180 3.0320 243° Southwest 176 203 3,800 -300 Descending FlightAware
05:01AM 49.0150 3.0050 260° West 170 196 3,700 -120 Descending FlightAware
05:02AM 49.0140 2.9690 268° West 171 197 3,700 60 Level FlightAware
05:02AM 49.0120 2.9340 265° West 177 204 3,800  Climbing FlightAware
05:02AM 49.0110 2.9150 265° West 176 203 3,700 -180 Descending FlightAware
05:03AM 49.0090 2.8810 265° West 173 199 3,700 -480 Level FlightAware
05:03AM 49.0080 2.8480 267° West 167 192 3,300 -900 Descending FlightAware
05:04AM 49.0060 2.8190 264° West 157 181 2,900 -900 Descending FlightAware
05:04AM 49.0050 2.7880 267° West 150 173 2,500 -900 Descending FlightAware
05:05AM 49.0030 2.7580 264° West 150 173 2,100 -900 Descending FlightAware
05:05AM 49.0020 2.7290 267° West 150 173 1,700 -780 Descending FlightAware
05:06AM 49.0000 2.7000 264° West 144 166 1,400 -720 Descending FlightAware
05:06AM 48.9990 2.6850 264° West 134 154 1,200 -780 Descending FlightAware
05:06AM 48.9980 2.6620 266° West 131 151 900 -720 Descending FlightAware
05:07AM 48.9970 2.6390 266° West 130 150 600 -660 Descending FlightAware
05:07AM 48.9960 2.6170 266° West 126 145 300 -660 Descending FlightAware
05:08AM 48.9940 2.5930 263° West 126 145 -720 Descending FlightAware
05:08AM 48.9930 2.5740 265° West 69 79  Level FlightAware
05:09AM 48.9940 2.5670 282° West 15 17  Level FlightAware
05:12AM 49.0000 2.5333 127° Southeast  Level FlightAware Approximate
05:13AM 49.0128 2.5500 127° Southeast  Level Estimated
05:14AM 49.0128 2.5500 127° Southeast  Level Estimated
05:15AM 49.0128 2.5500 127° Southeast  Level Estimated
05:16AM 49.0128 2.5500 127° Southeast  Level Estimated
05:17AM 49.0128 2.5500 127° Southeast  Level Estimated
05:18AM 49.0128 2.5500 127° Southeast  Level Estimated
05:19AM 49.0128 2.5500 127° Southeast  Level Estimated
05:20AM 49.0128 2.5500 127° Southeast  Level Estimated
05:21AM 49.0128 2.5500 127° Southeast  Level Estimated
05:22AM 49.0128 2.5500 127° Southeast  Level Estimated
05:23AM 49.0128 2.5500 127° Southeast  Level Estimated
05:24AM 49.0128 2.5500 127° Southeast  Level Estimated